sensor_id;sensor_type;location;lat;lon;timestamp;pressure;altitude;pressure_sealevel;temperature;humidity
71791;BME280;59638;52.126;5.434;2023-04-20T00:00:22;102576.72;;;5.63;55.51
71791;BME280;59638;52.126;5.434;2023-04-20T00:02:49;102571.75;;;5.57;55.39
71791;BME280;59638;52.126;5.434;2023-04-20T00:05:15;102562.28;;;5.53;54.88
71791;BME280;59638;52.126;5.434;2023-04-20T00:07:42;102563.34;;;5.49;56.02
71791;BME280;59638;52.126;5.434;2023-04-20T00:10:09;102562.69;;;5.44;56.56
71791;BME280;59638;52.126;5.434;2023-04-20T00:12:36;102561.16;;;5.38;56.95
71791;BME280;59638;52.126;5.434;2023-04-20T00:15:02;102554.41;;;5.33;57.15
71791;BME280;59638;52.126;5.434;2023-04-20T00:17:29;102556.47;;;5.25;58.09
71791;BME280;59638;52.126;5.434;2023-04-20T00:19:56;102550.47;;;5.23;57.89
71791;BME280;59638;52.126;5.434;2023-04-20T00:22:22;102544.97;;;5.29;57.92
71791;BME280;59638;52.126;5.434;2023-04-20T00:24:50;102536.22;;;5.30;58.13
71791;BME280;59638;52.126;5.434;2023-04-20T00:27:16;102527.69;;;5.25;57.80
71791;BME280;59638;52.126;5.434;2023-04-20T00:29:43;102529.63;;;5.19;57.40
71791;BME280;59638;52.126;5.434;2023-04-20T00:32:09;102520.22;;;5.15;57.72
71791;BME280;59638;52.126;5.434;2023-04-20T00:34:35;102513.44;;;5.10;58.47
71791;BME280;59638;52.126;5.434;2023-04-20T00:37:02;102507.47;;;5.06;58.72
71791;BME280;59638;52.126;5.434;2023-04-20T00:39:28;102500.78;;;4.99;58.98
71791;BME280;59638;52.126;5.434;2023-04-20T00:42:02;102500.84;;;4.98;59.95
71791;BME280;59638;52.126;5.434;2023-04-20T00:44:29;102494.22;;;4.89;59.83
71791;BME280;59638;52.126;5.434;2023-04-20T00:46:56;102491.03;;;4.81;60.21
71791;BME280;59638;52.126;5.434;2023-04-20T00:49:25;102473.63;;;4.80;60.67
71791;BME280;59638;52.126;5.434;2023-04-20T00:51:53;102475.41;;;4.79;60.90
71791;BME280;59638;52.126;5.434;2023-04-20T00:54:20;102466.56;;;4.82;61.38
71791;BME280;59638;52.126;5.434;2023-04-20T00:56:47;102468.31;;;4.83;61.34
71791;BME280;59638;52.126;5.434;2023-04-20T00:59:14;102448.81;;;4.90;62.88
71791;BME280;59638;52.126;5.434;2023-04-20T01:01:40;102450.94;;;5.02;62.50
71791;BME280;59638;52.126;5.434;2023-04-20T01:04:08;102444.41;;;5.12;62.25
71791;BME280;59638;52.126;5.434;2023-04-20T01:06:34;102444.03;;;5.22;62.64
71791;BME280;59638;52.126;5.434;2023-04-20T01:09:01;102442.81;;;5.30;63.23
71791;BME280;59638;52.126;5.434;2023-04-20T01:11:27;102440.00;;;5.35;63.18
71791;BME280;59638;52.126;5.434;2023-04-20T01:13:54;102438.00;;;5.40;63.89
71791;BME280;59638;52.126;5.434;2023-04-20T01:16:20;102436.97;;;5.44;63.66
71791;BME280;59638;52.126;5.434;2023-04-20T01:18:49;102432.66;;;5.43;63.38
71791;BME280;59638;52.126;5.434;2023-04-20T01:21:18;102427.41;;;5.43;64.12
71791;BME280;59638;52.126;5.434;2023-04-20T01:23:45;102421.53;;;5.38;65.03
71791;BME280;59638;52.126;5.434;2023-04-20T01:26:14;102422.56;;;5.34;65.49
71791;BME280;59638;52.126;5.434;2023-04-20T01:28:42;102413.22;;;5.28;64.95
71791;BME280;59638;52.126;5.434;2023-04-20T01:31:09;102409.22;;;5.19;66.57
71791;BME280;59638;52.126;5.434;2023-04-20T01:33:36;102405.91;;;5.14;65.89
71791;BME280;59638;52.126;5.434;2023-04-20T01:36:04;102407.75;;;5.12;66.83
71791;BME280;59638;52.126;5.434;2023-04-20T01:38:32;102404.63;;;5.04;66.69
71791;BME280;59638;52.126;5.434;2023-04-20T01:41:01;102392.31;;;5.06;66.65
71791;BME280;59638;52.126;5.434;2023-04-20T01:43:27;102397.44;;;5.09;67.46
71791;BME280;59638;52.126;5.434;2023-04-20T01:45:54;102390.22;;;5.14;66.69
71791;BME280;59638;52.126;5.434;2023-04-20T01:48:20;102398.88;;;5.16;66.51
71791;BME280;59638;52.126;5.434;2023-04-20T01:50:50;102385.31;;;5.27;66.79
71791;BME280;59638;52.126;5.434;2023-04-20T01:53:18;102392.78;;;5.36;66.45
71791;BME280;59638;52.126;5.434;2023-04-20T01:55:44;102383.25;;;5.35;67.55
71791;BME280;59638;52.126;5.434;2023-04-20T01:58:10;102378.97;;;5.33;67.12
71791;BME280;59638;52.126;5.434;2023-04-20T02:00:37;102378.84;;;5.36;67.71
71791;BME280;59638;52.126;5.434;2023-04-20T02:03:03;102376.81;;;5.42;67.40
71791;BME280;59638;52.126;5.434;2023-04-20T02:05:30;102377.41;;;5.49;67.94
71791;BME280;59638;52.126;5.434;2023-04-20T02:07:57;102372.41;;;5.63;67.54
71791;BME280;59638;52.126;5.434;2023-04-20T02:10:23;102366.47;;;5.79;68.26
71791;BME280;59638;52.126;5.434;2023-04-20T02:12:50;102365.06;;;5.90;68.00
71791;BME280;59638;52.126;5.434;2023-04-20T02:15:16;102357.72;;;5.98;68.84
71791;BME280;59638;52.126;5.434;2023-04-20T02:17:43;102353.75;;;6.09;68.90
71791;BME280;59638;52.126;5.434;2023-04-20T02:20:10;102348.06;;;6.18;68.88
71791;BME280;59638;52.126;5.434;2023-04-20T02:22:37;102340.78;;;6.24;69.14
71791;BME280;59638;52.126;5.434;2023-04-20T02:25:05;102342.47;;;6.25;69.40
71791;BME280;59638;52.126;5.434;2023-04-20T02:27:31;102332.06;;;6.24;69.28
71791;BME280;59638;52.126;5.434;2023-04-20T02:29:58;102334.31;;;6.32;69.57
71791;BME280;59638;52.126;5.434;2023-04-20T02:32:26;102323.97;;;6.29;69.93
71791;BME280;59638;52.126;5.434;2023-04-20T02:34:52;102321.00;;;6.17;70.15
71791;BME280;59638;52.126;5.434;2023-04-20T02:37:19;102317.63;;;6.15;70.29
71791;BME280;59638;52.126;5.434;2023-04-20T02:39:45;102312.44;;;6.14;70.56
71791;BME280;59638;52.126;5.434;2023-04-20T02:42:12;102303.72;;;6.13;71.17
71791;BME280;59638;52.126;5.434;2023-04-20T02:44:38;102301.88;;;6.15;71.16
71791;BME280;59638;52.126;5.434;2023-04-20T02:47:04;102305.00;;;6.23;71.33
71791;BME280;59638;52.126;5.434;2023-04-20T02:49:31;102298.34;;;6.34;71.41
71791;BME280;59638;52.126;5.434;2023-04-20T02:51:58;102289.13;;;6.44;71.93
71791;BME280;59638;52.126;5.434;2023-04-20T02:54:24;102287.97;;;6.49;71.71
71791;BME280;59638;52.126;5.434;2023-04-20T02:56:50;102290.97;;;6.59;71.43
71791;BME280;59638;52.126;5.434;2023-04-20T02:59:17;102290.00;;;6.62;70.83
71791;BME280;59638;52.126;5.434;2023-04-20T03:01:43;102290.59;;;6.67;71.93
71791;BME280;59638;52.126;5.434;2023-04-20T03:04:10;102283.59;;;6.67;70.35
71791;BME280;59638;52.126;5.434;2023-04-20T03:06:36;102285.00;;;6.74;71.25
71791;BME280;59638;52.126;5.434;2023-04-20T03:09:05;102285.97;;;6.89;70.17
71791;BME280;59638;52.126;5.434;2023-04-20T03:11:32;102281.25;;;6.96;71.38
71791;BME280;59638;52.126;5.434;2023-04-20T03:13:59;102287.28;;;6.98;71.44
71791;BME280;59638;52.126;5.434;2023-04-20T03:16:25;102272.22;;;7.01;71.27
71791;BME280;59638;52.126;5.434;2023-04-20T03:18:52;102263.31;;;7.04;71.39
71791;BME280;59638;52.126;5.434;2023-04-20T03:21:18;102263.78;;;7.12;70.60
71791;BME280;59638;52.126;5.434;2023-04-20T03:23:44;102266.78;;;7.22;70.66
71791;BME280;59638;52.126;5.434;2023-04-20T03:26:11;102267.06;;;7.33;69.63
71791;BME280;59638;52.126;5.434;2023-04-20T03:28:38;102268.50;;;7.39;70.17
71791;BME280;59638;52.126;5.434;2023-04-20T03:31:05;102263.84;;;7.44;70.07
71791;BME280;59638;52.126;5.434;2023-04-20T03:33:31;102256.72;;;7.46;69.88
71791;BME280;59638;52.126;5.434;2023-04-20T03:35:58;102266.22;;;7.48;69.13
71791;BME280;59638;52.126;5.434;2023-04-20T03:38:24;102257.41;;;7.49;70.23
71791;BME280;59638;52.126;5.434;2023-04-20T03:40:51;102255.03;;;7.45;70.06
71791;BME280;59638;52.126;5.434;2023-04-20T03:43:17;102248.06;;;7.44;69.53
71791;BME280;59638;52.126;5.434;2023-04-20T03:45:43;102249.94;;;7.42;70.63
71791;BME280;59638;52.126;5.434;2023-04-20T03:48:10;102238.25;;;7.47;69.65
71791;BME280;59638;52.126;5.434;2023-04-20T03:50:37;102249.28;;;7.54;69.61
71791;BME280;59638;52.126;5.434;2023-04-20T03:53:03;102241.31;;;7.55;69.15
71791;BME280;59638;52.126;5.434;2023-04-20T03:55:29;102245.72;;;7.55;69.95
71791;BME280;59638;52.126;5.434;2023-04-20T03:57:56;102237.84;;;7.55;69.71
71791;BME280;59638;52.126;5.434;2023-04-20T04:00:22;102233.34;;;7.57;69.72
71791;BME280;59638;52.126;5.434;2023-04-20T04:02:48;102231.66;;;7.56;69.78
71791;BME280;59638;52.126;5.434;2023-04-20T04:05:15;102229.88;;;7.56;69.60
71791;BME280;59638;52.126;5.434;2023-04-20T04:07:42;102217.56;;;7.57;70.66
71791;BME280;59638;52.126;5.434;2023-04-20T04:10:09;102219.28;;;7.58;69.94
71791;BME280;59638;52.126;5.434;2023-04-20T04:12:35;102214.00;;;7.58;69.85
71791;BME280;59638;52.126;5.434;2023-04-20T04:15:02;102213.84;;;7.61;69.51
71791;BME280;59638;52.126;5.434;2023-04-20T04:17:28;102210.53;;;7.57;70.47
71791;BME280;59638;52.126;5.434;2023-04-20T04:19:55;102215.69;;;7.59;70.35
71791;BME280;59638;52.126;5.434;2023-04-20T04:22:21;102201.72;;;7.58;70.78
71791;BME280;59638;52.126;5.434;2023-04-20T04:24:47;102205.38;;;7.56;70.31
71791;BME280;59638;52.126;5.434;2023-04-20T04:27:14;102194.03;;;7.55;71.45
71791;BME280;59638;52.126;5.434;2023-04-20T04:29:41;102192.25;;;7.56;71.01
71791;BME280;59638;52.126;5.434;2023-04-20T04:32:07;102190.47;;;7.56;70.88
71791;BME280;59638;52.126;5.434;2023-04-20T04:34:34;102184.34;;;7.56;71.45
71791;BME280;59638;52.126;5.434;2023-04-20T04:37:01;102190.56;;;7.55;71.92
71791;BME280;59638;52.126;5.434;2023-04-20T04:39:28;102176.38;;;7.57;71.05
71791;BME280;59638;52.126;5.434;2023-04-20T04:41:54;102178.91;;;7.59;71.53
71791;BME280;59638;52.126;5.434;2023-04-20T04:44:22;102177.22;;;7.58;71.42
71791;BME280;59638;52.126;5.434;2023-04-20T04:46:51;102182.47;;;7.58;71.56
71791;BME280;59638;52.126;5.434;2023-04-20T04:49:17;102173.50;;;7.62;70.35
71791;BME280;59638;52.126;5.434;2023-04-20T04:51:46;102180.28;;;7.66;71.87
71791;BME280;59638;52.126;5.434;2023-04-20T04:54:13;102170.19;;;7.74;70.47
71791;BME280;59638;52.126;5.434;2023-04-20T04:56:39;102170.94;;;7.76;71.44
71791;BME280;59638;52.126;5.434;2023-04-20T04:59:06;102169.06;;;7.78;71.35
71791;BME280;59638;52.126;5.434;2023-04-20T05:01:32;102176.78;;;7.81;71.25
71791;BME280;59638;52.126;5.434;2023-04-20T05:03:59;102183.00;;;7.80;71.32
71791;BME280;59638;52.126;5.434;2023-04-20T05:06:26;102177.88;;;7.77;71.63
71791;BME280;59638;52.126;5.434;2023-04-20T05:08:53;102180.63;;;7.76;71.89
71791;BME280;59638;52.126;5.434;2023-04-20T05:11:19;102165.88;;;7.73;71.21
71791;BME280;59638;52.126;5.434;2023-04-20T05:13:45;102161.63;;;7.71;71.50
71791;BME280;59638;52.126;5.434;2023-04-20T05:16:13;102175.03;;;7.66;71.48
71791;BME280;59638;52.126;5.434;2023-04-20T05:18:39;102174.25;;;7.64;72.18
71791;BME280;59638;52.126;5.434;2023-04-20T05:21:06;102181.38;;;7.62;71.89
71791;BME280;59638;52.126;5.434;2023-04-20T05:23:32;102175.38;;;7.60;72.50
71791;BME280;59638;52.126;5.434;2023-04-20T05:25:59;102191.16;;;7.60;72.67
71791;BME280;59638;52.126;5.434;2023-04-20T05:28:25;102181.47;;;7.60;72.78
71791;BME280;59638;52.126;5.434;2023-04-20T05:30:52;102173.50;;;7.62;72.49
71791;BME280;59638;52.126;5.434;2023-04-20T05:33:21;102168.06;;;7.65;72.38
71791;BME280;59638;52.126;5.434;2023-04-20T05:35:47;102165.38;;;7.67;72.86
71791;BME280;59638;52.126;5.434;2023-04-20T05:38:14;102177.47;;;7.69;72.21
71791;BME280;59638;52.126;5.434;2023-04-20T05:40:40;102169.41;;;7.72;71.71
71791;BME280;59638;52.126;5.434;2023-04-20T05:43:07;102171.13;;;7.73;72.06
71791;BME280;59638;52.126;5.434;2023-04-20T05:45:33;102172.81;;;7.74;71.27
71791;BME280;59638;52.126;5.434;2023-04-20T05:48:00;102172.63;;;7.77;71.82
71791;BME280;59638;52.126;5.434;2023-04-20T05:50:26;102177.53;;;7.83;70.88
71791;BME280;59638;52.126;5.434;2023-04-20T05:52:53;102171.19;;;7.87;71.32
71791;BME280;59638;52.126;5.434;2023-04-20T05:55:19;102170.06;;;7.91;70.92
71791;BME280;59638;52.126;5.434;2023-04-20T05:57:50;102173.47;;;7.94;70.09
71791;BME280;59638;52.126;5.434;2023-04-20T06:00:17;102171.59;;;7.96;70.66
71791;BME280;59638;52.126;5.434;2023-04-20T06:02:44;102166.13;;;7.99;69.83
71791;BME280;59638;52.126;5.434;2023-04-20T06:05:10;102163.44;;;8.00;71.05
71791;BME280;59638;52.126;5.434;2023-04-20T06:07:37;102154.34;;;8.06;69.95
71791;BME280;59638;52.126;5.434;2023-04-20T06:10:04;102151.34;;;8.12;68.98
71791;BME280;59638;52.126;5.434;2023-04-20T06:12:31;102149.50;;;8.14;68.63
71791;BME280;59638;52.126;5.434;2023-04-20T06:14:58;102154.41;;;8.20;68.73
71791;BME280;59638;52.126;5.434;2023-04-20T06:17:24;102147.25;;;8.22;67.36
71791;BME280;59638;52.126;5.434;2023-04-20T06:19:51;102146.41;;;8.22;67.65
71791;BME280;59638;52.126;5.434;2023-04-20T06:22:18;102143.69;;;8.23;69.02
71791;BME280;59638;52.126;5.434;2023-04-20T06:24:44;102136.63;;;8.24;67.59
71791;BME280;59638;52.126;5.434;2023-04-20T06:27:11;102148.94;;;8.23;67.93
71791;BME280;59638;52.126;5.434;2023-04-20T06:29:38;102139.44;;;8.21;67.64
71791;BME280;59638;52.126;5.434;2023-04-20T06:32:04;102140.47;;;8.18;68.54
71791;BME280;59638;52.126;5.434;2023-04-20T06:34:31;102144.38;;;8.11;68.98
71791;BME280;59638;52.126;5.434;2023-04-20T06:36:57;102140.34;;;8.05;68.84
71791;BME280;59638;52.126;5.434;2023-04-20T06:39:24;102146.47;;;8.06;69.92
71791;BME280;59638;52.126;5.434;2023-04-20T06:41:50;102139.13;;;8.11;69.60
71791;BME280;59638;52.126;5.434;2023-04-20T06:44:16;102139.97;;;8.11;69.07
71791;BME280;59638;52.126;5.434;2023-04-20T06:46:43;102136.34;;;8.14;68.93
71791;BME280;59638;52.126;5.434;2023-04-20T06:49:09;102123.78;;;8.19;69.38
71791;BME280;59638;52.126;5.434;2023-04-20T06:51:36;102127.72;;;8.26;70.39
71791;BME280;59638;52.126;5.434;2023-04-20T06:54:02;102123.78;;;8.33;69.67
71791;BME280;59638;52.126;5.434;2023-04-20T06:56:29;102132.09;;;8.41;70.58
71791;BME280;59638;52.126;5.434;2023-04-20T06:58:55;102128.78;;;8.38;69.90
71791;BME280;59638;52.126;5.434;2023-04-20T07:01:21;102148.28;;;8.20;70.28
71791;BME280;59638;52.126;5.434;2023-04-20T07:03:48;102142.91;;;8.07;71.43
71791;BME280;59638;52.126;5.434;2023-04-20T07:06:15;102148.50;;;8.01;72.02
71791;BME280;59638;52.126;5.434;2023-04-20T07:08:42;102144.59;;;7.92;73.31
71791;BME280;59638;52.126;5.434;2023-04-20T07:11:08;102153.13;;;7.81;73.29
71791;BME280;59638;52.126;5.434;2023-04-20T07:13:35;102144.06;;;7.71;73.38
71791;BME280;59638;52.126;5.434;2023-04-20T07:16:01;102149.09;;;7.60;74.85
71791;BME280;59638;52.126;5.434;2023-04-20T07:18:28;102143.00;;;7.59;74.68
71791;BME280;59638;52.126;5.434;2023-04-20T07:20:54;102151.38;;;7.50;75.01
71791;BME280;59638;52.126;5.434;2023-04-20T07:23:20;102142.00;;;7.46;75.14
71791;BME280;59638;52.126;5.434;2023-04-20T07:25:47;102144.19;;;7.54;75.41
71791;BME280;59638;52.126;5.434;2023-04-20T07:28:13;102142.91;;;7.61;75.42
71791;BME280;59638;52.126;5.434;2023-04-20T07:30:40;102140.09;;;7.64;75.98
71791;BME280;59638;52.126;5.434;2023-04-20T07:33:06;102151.97;;;7.55;76.06
71791;BME280;59638;52.126;5.434;2023-04-20T07:35:33;102154.84;;;7.51;76.34
71791;BME280;59638;52.126;5.434;2023-04-20T07:38:00;102162.66;;;7.36;76.72
71791;BME280;59638;52.126;5.434;2023-04-20T07:40:26;102156.38;;;7.23;77.91
71791;BME280;59638;52.126;5.434;2023-04-20T07:42:52;102150.94;;;7.11;78.13
71791;BME280;59638;52.126;5.434;2023-04-20T07:45:19;102150.63;;;7.01;78.63
71791;BME280;59638;52.126;5.434;2023-04-20T07:47:47;102163.47;;;6.90;79.11
71791;BME280;59638;52.126;5.434;2023-04-20T07:50:16;102158.22;;;6.90;78.68
71791;BME280;59638;52.126;5.434;2023-04-20T07:52:43;102165.16;;;6.91;78.48
71791;BME280;59638;52.126;5.434;2023-04-20T07:55:09;102159.38;;;6.84;78.93
71791;BME280;59638;52.126;5.434;2023-04-20T07:57:39;102158.34;;;6.87;80.00
71791;BME280;59638;52.126;5.434;2023-04-20T08:00:07;102157.19;;;6.92;78.62
71791;BME280;59638;52.126;5.434;2023-04-20T08:02:34;102164.47;;;6.87;79.84
71791;BME280;59638;52.126;5.434;2023-04-20T08:05:01;102160.06;;;6.88;79.92
71791;BME280;59638;52.126;5.434;2023-04-20T08:07:29;102157.97;;;6.94;79.83
71791;BME280;59638;52.126;5.434;2023-04-20T08:09:55;102145.19;;;7.04;78.99
71791;BME280;59638;52.126;5.434;2023-04-20T08:12:22;102134.19;;;7.13;79.41
71791;BME280;59638;52.126;5.434;2023-04-20T08:14:48;102136.91;;;7.27;78.36
71791;BME280;59638;52.126;5.434;2023-04-20T08:17:15;102140.47;;;7.42;79.58
71791;BME280;59638;52.126;5.434;2023-04-20T08:19:41;102134.13;;;7.76;79.17
71791;BME280;59638;52.126;5.434;2023-04-20T08:22:11;102141.72;;;7.97;78.38
71791;BME280;59638;52.126;5.434;2023-04-20T08:24:37;102129.91;;;8.04;77.25
71791;BME280;59638;52.126;5.434;2023-04-20T08:27:04;102123.25;;;8.42;77.04
71791;BME280;59638;52.126;5.434;2023-04-20T08:29:31;102121.50;;;8.86;76.19
71791;BME280;59638;52.126;5.434;2023-04-20T08:31:58;102114.47;;;9.94;73.42
71791;BME280;59638;52.126;5.434;2023-04-20T08:34:24;102109.78;;;9.72;72.35
71791;BME280;59638;52.126;5.434;2023-04-20T08:36:51;102114.88;;;9.07;73.79
71791;BME280;59638;52.126;5.434;2023-04-20T08:39:19;102116.50;;;8.67;73.88
71791;BME280;59638;52.126;5.434;2023-04-20T08:41:48;102116.47;;;8.38;75.46
71791;BME280;59638;52.126;5.434;2023-04-20T08:44:18;102120.06;;;8.37;76.42
71791;BME280;59638;52.126;5.434;2023-04-20T08:46:46;102117.69;;;8.33;75.51
71791;BME280;59638;52.126;5.434;2023-04-20T08:49:18;102120.19;;;8.20;76.28
71791;BME280;59638;52.126;5.434;2023-04-20T08:51:46;102123.38;;;8.25;77.55
71791;BME280;59638;52.126;5.434;2023-04-20T08:54:12;102117.47;;;8.22;77.11
71791;BME280;59638;52.126;5.434;2023-04-20T08:56:41;102099.53;;;8.28;76.60
71791;BME280;59638;52.126;5.434;2023-04-20T08:59:09;102098.63;;;8.43;76.88
71791;BME280;59638;52.126;5.434;2023-04-20T09:01:36;102095.47;;;8.53;76.35
71791;BME280;59638;52.126;5.434;2023-04-20T09:04:37;102088.88;;;8.74;76.65
71791;BME280;59638;52.126;5.434;2023-04-20T09:07:04;102092.44;;;8.87;75.07
71791;BME280;59638;52.126;5.434;2023-04-20T09:09:31;102105.41;;;9.05;74.64
71791;BME280;59638;52.126;5.434;2023-04-20T09:12:07;102100.09;;;9.19;74.41
71791;BME280;59638;52.126;5.434;2023-04-20T09:14:42;102097.31;;;9.35;73.41
71791;BME280;59638;52.126;5.434;2023-04-20T09:17:08;102089.22;;;9.65;72.53
71791;BME280;59638;52.126;5.434;2023-04-20T09:19:40;102092.44;;;10.08;69.08
71791;BME280;59638;52.126;5.434;2023-04-20T09:22:08;102103.25;;;9.38;71.10
71791;BME280;59638;52.126;5.434;2023-04-20T09:24:36;102094.16;;;9.15;71.75
71791;BME280;59638;52.126;5.434;2023-04-20T09:27:17;102105.78;;;8.98;73.30
71791;BME280;59638;52.126;5.434;2023-04-20T09:29:55;102081.13;;;8.99;72.29
71791;BME280;59638;52.126;5.434;2023-04-20T09:32:23;102081.97;;;9.94;70.93
71791;BME280;59638;52.126;5.434;2023-04-20T09:34:50;102081.91;;;10.21;69.76
71791;BME280;59638;52.126;5.434;2023-04-20T09:37:17;102080.00;;;10.74;68.43
71791;BME280;59638;52.126;5.434;2023-04-20T09:39:44;102070.69;;;11.18;67.70
71791;BME280;59638;52.126;5.434;2023-04-20T09:42:13;102083.75;;;10.95;67.31
71791;BME280;59638;52.126;5.434;2023-04-20T09:44:40;102073.69;;;10.64;68.12
71791;BME280;59638;52.126;5.434;2023-04-20T09:47:08;102079.59;;;10.29;68.42
71791;BME280;59638;52.126;5.434;2023-04-20T09:49:51;102076.25;;;9.74;70.29
71791;BME280;59638;52.126;5.434;2023-04-20T09:52:18;102077.91;;;9.63;69.91
71791;BME280;59638;52.126;5.434;2023-04-20T09:54:45;102076.13;;;9.76;68.94
71791;BME280;59638;52.126;5.434;2023-04-20T09:57:13;102066.88;;;9.83;69.84
71791;BME280;59638;52.126;5.434;2023-04-20T09:59:42;102067.28;;;9.77;68.89
71791;BME280;59638;52.126;5.434;2023-04-20T10:02:12;102067.72;;;9.96;68.00
71791;BME280;59638;52.126;5.434;2023-04-20T10:04:55;102064.38;;;10.20;68.92
71791;BME280;59638;52.126;5.434;2023-04-20T10:07:26;102067.31;;;10.02;68.57
71791;BME280;59638;52.126;5.434;2023-04-20T10:12:51;102055.63;;;10.06;67.59
71791;BME280;59638;52.126;5.434;2023-04-20T10:15:18;102053.75;;;9.69;68.57
71791;BME280;59638;52.126;5.434;2023-04-20T10:17:47;102051.53;;;9.63;68.07
71791;BME280;59638;52.126;5.434;2023-04-20T10:20:23;102053.84;;;9.54;68.97
71791;BME280;59638;52.126;5.434;2023-04-20T10:23:06;102048.66;;;9.53;69.83
71791;BME280;59638;52.126;5.434;2023-04-20T10:25:33;102047.94;;;9.64;69.49
71791;BME280;59638;52.126;5.434;2023-04-20T10:28:02;102054.63;;;9.82;67.37
71791;BME280;59638;52.126;5.434;2023-04-20T10:30:36;102052.16;;;10.19;66.20
71791;BME280;59638;52.126;5.434;2023-04-20T10:33:08;102046.75;;;10.07;66.47
71791;BME280;59638;52.126;5.434;2023-04-20T10:35:52;102046.44;;;9.99;66.73
71791;BME280;59638;52.126;5.434;2023-04-20T10:38:31;102042.94;;;9.86;66.72
71791;BME280;59638;52.126;5.434;2023-04-20T10:41:08;102039.31;;;9.62;66.41
71791;BME280;59638;52.126;5.434;2023-04-20T10:43:35;102044.25;;;9.53;66.62
71791;BME280;59638;52.126;5.434;2023-04-20T10:46:12;102040.09;;;9.49;67.59
71791;BME280;59638;52.126;5.434;2023-04-20T10:48:58;102036.44;;;9.52;68.16
71791;BME280;59638;52.126;5.434;2023-04-20T10:51:26;102039.16;;;9.50;67.29
71791;BME280;59638;52.126;5.434;2023-04-20T10:54:04;102033.47;;;9.57;66.89
71791;BME280;59638;52.126;5.434;2023-04-20T10:56:49;102036.06;;;9.84;66.97
71791;BME280;59638;52.126;5.434;2023-04-20T10:59:19;102011.84;;;10.04;65.07
71791;BME280;59638;52.126;5.434;2023-04-20T11:01:47;102012.56;;;10.19;64.39
71791;BME280;59638;52.126;5.434;2023-04-20T11:04:14;102003.50;;;10.85;63.59
71791;BME280;59638;52.126;5.434;2023-04-20T11:06:46;102002.53;;;11.10;63.10
71791;BME280;59638;52.126;5.434;2023-04-20T11:09:21;101982.34;;;13.86;58.53
71791;BME280;59638;52.126;5.434;2023-04-20T11:14:27;102003.13;;;12.96;56.78
71791;BME280;59638;52.126;5.434;2023-04-20T11:16:54;102003.88;;;12.87;57.19
71791;BME280;59638;52.126;5.434;2023-04-20T11:19:32;101991.19;;;12.24;55.89
71791;BME280;59638;52.126;5.434;2023-04-20T11:22:01;101999.09;;;11.21;58.84
71791;BME280;59638;52.126;5.434;2023-04-20T11:24:30;102001.56;;;10.87;59.83
71791;BME280;59638;52.126;5.434;2023-04-20T11:26:56;101994.88;;;10.70;60.79
71791;BME280;59638;52.126;5.434;2023-04-20T11:29:34;101987.72;;;10.96;61.45
71791;BME280;59638;52.126;5.434;2023-04-20T11:32:05;101984.78;;;11.47;59.78
71791;BME280;59638;52.126;5.434;2023-04-20T11:34:33;101974.69;;;12.32;57.63
71791;BME280;59638;52.126;5.434;2023-04-20T11:37:08;101968.44;;;13.94;54.04
71791;BME280;59638;52.126;5.434;2023-04-20T11:39:36;101980.25;;;12.95;53.67
71791;BME280;59638;52.126;5.434;2023-04-20T11:42:03;101995.03;;;12.20;56.26
71791;BME280;59638;52.126;5.434;2023-04-20T11:44:29;101982.28;;;12.25;56.11
71791;BME280;59638;52.126;5.434;2023-04-20T11:46:56;101980.78;;;11.77;56.33
71791;BME280;59638;52.126;5.434;2023-04-20T11:49:27;101977.75;;;11.35;57.74
71791;BME280;59638;52.126;5.434;2023-04-20T11:51:54;101980.22;;;10.90;59.19
71791;BME280;59638;52.126;5.434;2023-04-20T11:54:20;101986.59;;;10.75;58.93
71791;BME280;59638;52.126;5.434;2023-04-20T11:56:47;101989.63;;;10.57;60.09
71791;BME280;59638;52.126;5.434;2023-04-20T11:59:13;101991.34;;;10.46;58.55
71791;BME280;59638;52.126;5.434;2023-04-20T12:01:42;101992.63;;;10.27;60.26
71791;BME280;59638;52.126;5.434;2023-04-20T12:04:08;101985.41;;;10.17;60.99
71791;BME280;59638;52.126;5.434;2023-04-20T12:06:36;101989.03;;;10.03;61.44
71791;BME280;59638;52.126;5.434;2023-04-20T12:09:02;101987.88;;;9.94;62.18
71791;BME280;59638;52.126;5.434;2023-04-20T12:11:31;101991.22;;;9.96;61.86
71791;BME280;59638;52.126;5.434;2023-04-20T12:13:57;101991.78;;;10.01;63.02
71791;BME280;59638;52.126;5.434;2023-04-20T12:16:25;101990.31;;;9.97;62.18
71791;BME280;59638;52.126;5.434;2023-04-20T12:18:52;101985.47;;;9.91;62.34
71791;BME280;59638;52.126;5.434;2023-04-20T12:21:18;101979.09;;;9.81;62.03
71791;BME280;59638;52.126;5.434;2023-04-20T12:23:45;101983.13;;;9.74;63.94
71791;BME280;59638;52.126;5.434;2023-04-20T12:26:13;101975.31;;;9.85;64.25
71791;BME280;59638;52.126;5.434;2023-04-20T12:28:40;101981.75;;;9.94;63.21
71791;BME280;59638;52.126;5.434;2023-04-20T12:31:06;101970.66;;;10.14;62.12
71791;BME280;59638;52.126;5.434;2023-04-20T12:33:33;101974.84;;;10.55;60.59
71791;BME280;59638;52.126;5.434;2023-04-20T12:35:59;101969.69;;;11.01;60.00
71791;BME280;59638;52.126;5.434;2023-04-20T12:38:26;101957.25;;;11.14;61.13
71791;BME280;59638;52.126;5.434;2023-04-20T12:40:52;101966.47;;;11.33;61.43
71791;BME280;59638;52.126;5.434;2023-04-20T12:43:19;101957.56;;;11.23;60.18
71791;BME280;59638;52.126;5.434;2023-04-20T12:45:45;101951.97;;;11.14;60.93
71791;BME280;59638;52.126;5.434;2023-04-20T12:48:13;101966.84;;;11.04;59.13
71791;BME280;59638;52.126;5.434;2023-04-20T12:50:39;101958.09;;;11.15;58.68
71791;BME280;59638;52.126;5.434;2023-04-20T12:53:06;101957.56;;;11.23;58.38
71791;BME280;59638;52.126;5.434;2023-04-20T12:55:33;101948.69;;;11.35;57.47
71791;BME280;59638;52.126;5.434;2023-04-20T12:57:59;101952.06;;;11.37;57.77
71791;BME280;59638;52.126;5.434;2023-04-20T13:00:26;101955.75;;;11.23;57.78
71791;BME280;59638;52.126;5.434;2023-04-20T13:02:52;101951.38;;;11.11;60.53
71791;BME280;59638;52.126;5.434;2023-04-20T13:05:19;101956.47;;;10.90;60.56